To NAV CANADA Home Page Login to a new session Search on AWWS site Feedback and Comments Disclaimer Vers la page française équivalente Tips FAQ What's new on the site To the Forecasts and Observations / NOTAM section To "File a Flight Plan" website Publications and other links Update of the User's profile FIC Telephone Numbers My Weather Data Folder Route Weather Data Regional Weather Data Local Weather Data To the Forecasts and Observations / NOTAM section
Request Generated 04/21/2015 at 01:23:39 UTC . Weather information available at that time is displayed.

METAR/TAF

RED DEER/RED DEER REGIONAL/AB    

METAR CYQF 210100Z 01011G16KT 15SM SCT080 BKN120 16/M01 A2982 RMK
AC3AC4 SLP125 DENSITY ALT 3900FT=
METAR CYQF 210000Z 01014G20KT 15SM FEW075 BKN120 17/M02 A2982 RMK
CU2AC4 SLP123 DENSITY ALT 4000FT=
METAR CYQF 202300Z 32013G19KT 15SM FEW080 BKN120 18/M02 A2982 RMK
CU2AC4 ACSL SLP120 DENSITY ALT 4100FT=

TAF CYQF 202338Z 2100/2112 31012G22KT P6SM FEW080 BKN250
BECMG 2100/2102 33008KT
FM210600 06006KT P6SM BKN100
FM211000 09006KT P6SM SCT100
RMK NXT FCST BY 210600Z=
Your time UTC time
Weather data provided by Environment Canada and NAV CANADA